Time;durP1;ratioP1;P1;durP2;ratioP2;P2;SDS_P1;SDS_P2;PMS_P1;PMS_P2;Temp;Humidity;BMP_temperature;BMP_pressure;BME280_temperature;BME280_humidity;BME280_pressure;Samples;Min_cycle;Max_cycle;Signal;HPM_P1;HPM_P2
2020/12/09 00:00:55;;;;;;;51.73;34.63;;;2.40;99.90;;;;;;5053516;28;20199;-64
2020/12/09 00:03:21;;;;;;;46.73;33.57;;;2.40;99.90;;;;;;5051237;28;20231;-66
2020/12/09 00:05:46;;;;;;;48.77;32.03;;;2.40;99.90;;;;;;5060324;28;20600;-64
2020/12/09 00:08:12;;;;;;;51.40;34.73;;;2.40;99.90;;;;;;5054021;28;20254;-65
2020/12/09 00:10:38;;;;;;;48.97;34.57;;;2.40;99.90;;;;;;5054927;28;20292;-65
2020/12/09 00:13:04;;;;;;;51.60;35.63;;;2.40;99.90;;;;;;5029610;28;20194;-65
2020/12/09 00:15:30;;;;;;;51.63;35.40;;;2.40;99.90;;;;;;5057777;28;20194;-65
2020/12/09 00:17:56;;;;;;;47.00;33.33;;;2.40;99.90;;;;;;5052394;28;20180;-65
2020/12/09 00:20:22;;;;;;;52.47;34.97;;;2.40;99.90;;;;;;5051651;28;20210;-65
2020/12/09 00:22:47;;;;;;;52.87;35.23;;;2.40;99.90;;;;;;5051213;28;20187;-64
2020/12/09 00:25:13;;;;;;;49.77;35.13;;;2.40;99.90;;;;;;5051180;28;20174;-64
2020/12/09 00:27:39;;;;;;;52.53;35.40;;;2.50;99.90;;;;;;5054168;28;20503;-66
2020/12/09 00:30:06;;;;;;;50.43;35.17;;;2.40;99.90;;;;;;5053430;28;20261;-64
2020/12/09 00:32:35;;;;;;;51.10;35.40;;;2.40;99.90;;;;;;5048166;28;20177;-64
2020/12/09 00:35:02;;;;;;;52.93;34.80;;;2.40;99.90;;;;;;5047362;28;20195;-65
2020/12/09 00:37:27;;;;;;;52.07;34.83;;;2.40;99.90;;;;;;5042263;28;20212;-65
2020/12/09 00:39:53;;;;;;;50.87;34.57;;;2.50;99.90;;;;;;5038744;28;20699;-65
2020/12/09 00:42:19;;;;;;;51.57;36.10;;;2.50;99.90;;;;;;5036882;28;20615;-66
2020/12/09 00:44:44;;;;;;;52.83;35.97;;;2.50;99.90;;;;;;5046106;28;20229;-66
2020/12/09 00:47:10;;;;;;;52.00;34.90;;;2.60;99.90;;;;;;5040633;28;20209;-65
2020/12/09 00:49:58;;;;;;;48.73;34.00;;;2.60;99.90;;;;;;5040934;28;20213;-65
2020/12/09 00:52:26;;;;;;;55.40;36.50;;;2.60;99.90;;;;;;5032739;28;20631;-65
2020/12/09 00:54:52;;;;;;;56.27;37.50;;;2.60;99.90;;;;;;5041961;28;20203;-66
2020/12/09 00:57:26;;;;;;;55.47;39.73;;;2.60;99.90;;;;;;5041055;28;20192;-65
2020/12/09 00:59:52;;;;;;;58.43;38.60;;;2.60;99.90;;;;;;5038460;28;20727;-66
2020/12/09 01:02:17;;;;;;;63.17;41.83;;;2.60;99.90;;;;;;5046723;28;20185;-65
2020/12/09 01:04:43;;;;;;;74.63;46.20;;;2.60;99.90;;;;;;5035782;28;20211;-66
2020/12/09 01:07:08;;;;;;;60.77;40.60;;;2.60;99.90;;;;;;5042509;28;20242;-66
2020/12/09 01:09:35;;;;;;;57.53;38.00;;;2.60;99.90;;;;;;5041897;28;20212;-66
2020/12/09 01:12:04;;;;;;;49.13;35.47;;;2.60;99.90;;;;;;5043554;28;20179;-66
2020/12/09 01:14:30;;;;;;;57.20;37.97;;;2.50;99.90;;;;;;5038199;28;20218;-66
2020/12/09 01:16:55;;;;;;;64.30;41.70;;;2.50;99.90;;;;;;5039123;28;20224;-66
2020/12/09 01:19:22;;;;;;;59.87;38.80;;;2.50;99.90;;;;;;5038669;28;20726;-66
2020/12/09 01:21:48;;;;;;;54.97;35.63;;;2.50;99.90;;;;;;5052567;28;20195;-65
2020/12/09 01:24:14;;;;;;;57.60;37.93;;;2.50;99.90;;;;;;5055820;28;20214;-65
2020/12/09 01:26:39;;;;;;;54.70;36.07;;;2.40;99.90;;;;;;5046813;28;20692;-66
2020/12/09 01:29:05;;;;;;;54.50;37.00;;;2.40;99.90;;;;;;5037830;28;20213;-66
2020/12/09 01:31:30;;;;;;;54.00;35.83;;;2.40;99.90;;;;;;5042914;28;20180;-66
2020/12/09 01:33:56;;;;;;;52.43;35.07;;;2.40;99.90;;;;;;5039616;28;20815;-65
2020/12/09 01:36:22;;;;;;;53.97;36.27;;;2.40;99.90;;;;;;5038627;28;20180;-66
2020/12/09 01:38:49;;;;;;;53.50;36.27;;;2.40;99.90;;;;;;5041829;28;20205;-65
2020/12/09 01:41:20;;;;;;;52.03;34.77;;;2.40;99.90;;;;;;5036390;28;20205;-64
2020/12/09 01:43:47;;;;;;;50.23;35.73;;;2.40;99.90;;;;;;5047894;28;20243;-65
2020/12/09 01:46:30;;;;;;;47.90;34.13;;;2.50;99.90;;;;;;5041642;28;20788;-65
2020/12/09 01:48:57;;;;;;;52.53;35.27;;;2.50;99.90;;;;;;5044199;28;20283;-65
2020/12/09 01:51:24;;;;;;;49.77;33.83;;;2.40;99.90;;;;;;5043017;28;20189;-65
2020/12/09 01:53:53;;;;;;;52.53;35.87;;;2.40;99.90;;;;;;5043790;28;20193;-65
2020/12/09 01:56:19;;;;;;;50.80;34.57;;;2.40;99.90;;;;;;5047465;28;20723;-64
2020/12/09 01:58:45;;;;;;;53.40;35.37;;;2.40;99.90;;;;;;5041655;28;20213;-66
2020/12/09 02:01:11;;;;;;;50.37;34.27;;;2.50;99.90;;;;;;5055605;28;20192;-66
2020/12/09 02:03:37;;;;;;;53.97;35.00;;;2.40;99.90;;;;;;5048063;28;20223;-64
2020/12/09 02:06:04;;;;;;;51.13;35.77;;;2.40;99.90;;;;;;5057083;28;20221;-65
2020/12/09 02:08:30;;;;;;;56.27;35.30;;;2.40;99.90;;;;;;5046270;28;20206;-65
2020/12/09 02:11:00;;;;;;;51.57;34.83;;;2.40;99.90;;;;;;5055292;28;20657;-64
2020/12/09 02:13:27;;;;;;;53.80;35.50;;;2.40;99.90;;;;;;5055353;28;20193;-64
2020/12/09 02:15:53;;;;;;;52.83;35.40;;;2.40;99.90;;;;;;5047301;28;20186;-65
2020/12/09 02:18:19;;;;;;;51.33;35.33;;;2.30;99.90;;;;;;5050525;28;20571;-64
2020/12/09 02:20:44;;;;;;;51.27;33.63;;;2.30;99.90;;;;;;5040682;28;20208;-64
2020/12/09 02:23:10;;;;;;;48.90;33.47;;;2.30;99.90;;;;;;5050435;28;20187;-65
2020/12/09 02:25:36;;;;;;;53.17;35.77;;;2.30;99.90;;;;;;5037316;28;20185;-64
2020/12/09 02:28:02;;;;;;;54.70;35.93;;;2.20;99.90;;;;;;5042184;28;20217;-66
2020/12/09 02:33:49;;;;;;;54.83;35.43;;;2.20;99.90;;;;;;5044825;28;20303;-66
2020/12/09 02:36:15;;;;;;;53.13;34.80;;;2.20;99.90;;;;;;5049485;28;20224;-65
2020/12/09 02:38:41;;;;;;;55.97;35.60;;;2.20;99.90;;;;;;5037826;28;20225;-66
2020/12/09 02:41:07;;;;;;;54.43;35.00;;;2.20;99.90;;;;;;5042583;28;20215;-66
2020/12/09 02:43:33;;;;;;;52.37;34.43;;;2.10;99.90;;;;;;5041986;28;20563;-66
2020/12/09 02:45:58;;;;;;;51.07;33.10;;;2.10;99.90;;;;;;5040082;28;20205;-66
2020/12/09 02:48:24;;;;;;;53.63;33.93;;;2.20;99.90;;;;;;5049552;28;20801;-66
2020/12/09 02:50:50;;;;;;;52.47;34.23;;;2.10;99.90;;;;;;5042045;28;20737;-66
2020/12/09 02:53:15;;;;;;;51.10;34.67;;;2.10;99.90;;;;;;5044123;28;20187;-66
2020/12/09 02:55:41;;;;;;;49.90;33.60;;;2.10;99.90;;;;;;5039154;28;20260;-66
2020/12/09 02:58:06;;;;;;;52.00;34.10;;;2.10;99.90;;;;;;5044038;28;20200;-66
2020/12/09 03:00:32;;;;;;;53.53;34.27;;;2.10;99.90;;;;;;5045313;28;20213;-66
2020/12/09 03:02:58;;;;;;;52.07;34.53;;;2.10;99.90;;;;;;5038590;28;20184;-66
2020/12/09 03:05:24;;;;;;;52.80;34.90;;;2.10;99.90;;;;;;5045225;28;20558;-66
2020/12/09 03:07:50;;;;;;;52.03;34.27;;;2.00;99.90;;;;;;5039000;28;20318;-66
2020/12/09 03:10:15;;;;;;;54.93;36.23;;;2.00;99.90;;;;;;5049081;28;20228;-66
2020/12/09 03:12:41;;;;;;;54.40;35.83;;;2.00;99.90;;;;;;5047190;28;20183;-66
2020/12/09 03:15:07;;;;;;;50.53;34.20;;;2.00;99.90;;;;;;5045939;28;20180;-65
2020/12/09 03:17:32;;;;;;;57.47;35.90;;;2.00;99.90;;;;;;5039988;28;20572;-66
2020/12/09 03:19:58;;;;;;;56.37;36.27;;;2.00;99.90;;;;;;5042473;28;20207;-66
2020/12/09 03:22:23;;;;;;;57.83;35.53;;;1.80;99.90;;;;;;5042129;28;20277;-66
2020/12/09 03:24:49;;;;;;;54.03;35.93;;;1.90;99.90;;;;;;5039363;28;20181;-66
2020/12/09 03:27:15;;;;;;;50.63;34.37;;;1.90;99.90;;;;;;5040933;28;20220;-66
2020/12/09 03:29:40;;;;;;;56.70;36.00;;;1.90;99.90;;;;;;5042083;28;20681;-65
2020/12/09 03:32:06;;;;;;;51.87;34.00;;;1.80;99.90;;;;;;5042083;28;20177;-65
2020/12/09 03:34:31;;;;;;;56.70;36.10;;;1.90;99.90;;;;;;5037183;28;20203;-65
2020/12/09 03:36:57;;;;;;;55.03;33.87;;;1.90;99.90;;;;;;5041797;28;20189;-67
2020/12/09 03:39:23;;;;;;;55.97;35.10;;;1.90;99.90;;;;;;5041839;28;20585;-66
2020/12/09 03:41:48;;;;;;;48.30;32.43;;;1.90;99.90;;;;;;5042380;28;20986;-65
2020/12/09 03:44:14;;;;;;;50.77;33.83;;;1.90;99.90;;;;;;5039720;28;20682;-67
2020/12/09 03:46:40;;;;;;;51.90;35.80;;;1.90;99.90;;;;;;5039344;28;20291;-65
2020/12/09 03:49:05;;;;;;;51.10;34.57;;;1.80;99.90;;;;;;5039601;28;20257;-68
2020/12/09 03:51:31;;;;;;;50.23;33.60;;;1.80;99.90;;;;;;5043386;28;20894;-69
2020/12/09 03:53:57;;;;;;;47.73;32.77;;;1.80;99.90;;;;;;5042519;28;20210;-69
2020/12/09 03:56:22;;;;;;;48.87;32.97;;;1.80;99.90;;;;;;5036608;28;20222;-67
2020/12/09 03:58:48;;;;;;;53.33;34.20;;;1.80;99.90;;;;;;5039226;28;20295;-67
2020/12/09 04:01:13;;;;;;;53.03;34.60;;;1.80;99.90;;;;;;5041016;28;20191;-66
2020/12/09 04:03:39;;;;;;;56.33;36.03;;;1.80;99.90;;;;;;5043291;28;20837;-66
2020/12/09 04:06:04;;;;;;;57.30;35.60;;;1.80;99.90;;;;;;5036600;28;20730;-66
2020/12/09 04:08:30;;;;;;;53.30;34.57;;;1.80;99.90;;;;;;5033882;28;20190;-66
2020/12/09 04:10:56;;;;;;;50.80;33.67;;;1.80;99.90;;;;;;5037853;28;20180;-68
2020/12/09 04:13:21;;;;;;;54.67;35.97;;;1.80;99.90;;;;;;5036785;28;20662;-66
2020/12/09 04:15:47;;;;;;;53.10;36.50;;;1.80;99.90;;;;;;5036477;28;20191;-66
2020/12/09 04:18:13;;;;;;;55.67;35.43;;;1.80;99.90;;;;;;5044536;28;20263;-66
2020/12/09 04:20:38;;;;;;;58.50;35.80;;;1.80;99.90;;;;;;5018945;28;20285;-67
2020/12/09 04:23:04;;;;;;;59.23;36.17;;;1.80;99.90;;;;;;5042761;28;20181;-67
2020/12/09 04:25:30;;;;;;;60.13;35.27;;;1.80;99.90;;;;;;5040514;28;20576;-64
2020/12/09 04:27:55;;;;;;;58.53;36.07;;;1.80;99.90;;;;;;5043463;28;20831;-65
2020/12/09 04:30:21;;;;;;;53.93;35.67;;;1.80;99.90;;;;;;5043558;28;20686;-65
2020/12/09 04:32:47;;;;;;;52.23;34.90;;;1.80;99.90;;;;;;5042449;28;20209;-66
2020/12/09 04:35:12;;;;;;;59.70;36.73;;;1.80;99.90;;;;;;5040172;28;20720;-66
2020/12/09 04:37:39;;;;;;;64.10;37.77;;;1.80;99.90;;;;;;5040211;28;20198;-68
2020/12/09 04:40:05;;;;;;;59.60;35.67;;;1.90;99.90;;;;;;5040146;28;20227;-68
2020/12/09 04:42:31;;;;;;;53.03;34.50;;;1.90;99.90;;;;;;5045557;28;20211;-69
2020/12/09 04:44:57;;;;;;;54.97;35.13;;;2.00;99.90;;;;;;5040941;28;20202;-68
2020/12/09 04:47:28;;;;;;;58.87;43.47;;;2.00;99.90;;;;;;5039573;28;20520;-69
2020/12/09 04:50:13;;;;;;;62.03;37.27;;;2.00;99.90;;;;;;5041589;28;20247;-68
2020/12/09 04:52:53;;;;;;;56.93;33.70;;;2.00;99.90;;;;;;5036927;28;20199;-68
2020/12/09 04:55:19;;;;;;;59.63;35.30;;;2.00;99.90;;;;;;5038482;28;20194;-70
2020/12/09 04:58:14;;;;;;;57.93;35.33;;;2.00;99.90;;;;;;5046786;28;20183;-68
2020/12/09 05:00:46;;;;;;;55.40;34.57;;;2.00;99.90;;;;;;5034625;28;20214;-69
2020/12/09 05:03:19;;;;;;;62.37;36.30;;;2.00;99.90;;;;;;5038811;28;20582;-68
2020/12/09 05:05:46;;;;;;;58.63;35.73;;;2.00;99.90;;;;;;5034437;28;20272;-67
2020/12/09 05:08:18;;;;;;;61.50;36.57;;;2.00;99.90;;;;;;5038251;28;20191;-68
2020/12/09 05:10:50;;;;;;;65.57;37.23;;;1.90;99.90;;;;;;5034302;28;20294;-69
2020/12/09 05:13:22;;;;;;;58.47;36.53;;;2.00;99.90;;;;;;5042623;28;20194;-68
2020/12/09 05:15:52;;;;;;;56.60;36.20;;;2.00;99.90;;;;;;5042751;28;20231;-69
2020/12/09 05:18:34;;;;;;;58.43;37.10;;;2.00;99.90;;;;;;5048246;28;20199;-68
2020/12/09 05:21:29;;;;;;;70.37;38.47;;;2.00;99.90;;;;;;5042054;28;20248;-69
2020/12/09 05:23:59;;;;;;;62.83;37.90;;;2.00;99.90;;;;;;5042527;28;20200;-68
2020/12/09 05:26:30;;;;;;;65.63;38.00;;;1.90;99.90;;;;;;5052029;28;20207;-69
2020/12/09 05:29:15;;;;;;;61.77;36.37;;;1.90;99.90;;;;;;5047694;28;20199;-68
2020/12/09 05:31:44;;;;;;;64.40;38.23;;;2.00;99.90;;;;;;5052879;28;20178;-69
2020/12/09 05:34:31;;;;;;;65.47;38.73;;;2.00;99.90;;;;;;5051833;28;20187;-68
2020/12/09 05:37:03;;;;;;;68.73;41.77;;;2.10;99.90;;;;;;5042055;28;20270;-70
2020/12/09 05:39:29;;;;;;;70.47;41.53;;;2.10;99.90;;;;;;5048855;28;20200;-69
2020/12/09 05:41:56;;;;;;;75.80;44.50;;;2.10;99.90;;;;;;5043789;28;20214;-69
2020/12/09 05:44:23;;;;;;;75.23;42.80;;;2.10;99.90;;;;;;5049645;28;20233;-69
2020/12/09 05:47:02;;;;;;;76.83;41.93;;;2.20;99.90;;;;;;5025880;28;20215;-69
2020/12/09 05:49:36;;;;;;;68.93;40.17;;;2.20;99.90;;;;;;5048523;28;20203;-69
2020/12/09 05:52:08;;;;;;;60.77;39.43;;;2.30;99.90;;;;;;5041460;28;20247;-69
2020/12/09 05:54:35;;;;;;;64.17;38.83;;;2.30;99.90;;;;;;5049139;28;20263;-69
2020/12/09 05:57:06;;;;;;;62.83;37.27;;;2.30;99.90;;;;;;5039182;28;20199;-69
2020/12/09 05:59:37;;;;;;;61.60;37.27;;;2.30;99.90;;;;;;5046546;28;20692;-69
2020/12/09 06:02:16;;;;;;;69.03;40.57;;;2.30;99.90;;;;;;5040870;28;20200;-69
2020/12/09 06:04:57;;;;;;;59.77;36.47;;;2.30;99.90;;;;;;5038974;28;20282;-68
2020/12/09 06:07:27;;;;;;;55.43;36.83;;;2.30;99.90;;;;;;5042933;28;20205;-69
2020/12/09 06:10:19;;;;;;;61.23;37.00;;;2.30;99.90;;;;;;5046203;28;20209;-68
2020/12/09 06:13:01;;;;;;;63.03;37.67;;;2.40;99.90;;;;;;5024633;28;20245;-68
2020/12/09 06:15:31;;;;;;;60.10;37.13;;;2.40;99.90;;;;;;5045938;28;20185;-69
2020/12/09 06:18:08;;;;;;;52.33;35.10;;;2.50;99.90;;;;;;5041404;28;20196;-69
2020/12/09 06:20:38;;;;;;;51.10;34.20;;;2.50;99.90;;;;;;5045869;28;20205;-67
2020/12/09 06:23:14;;;;;;;56.27;35.60;;;2.50;99.90;;;;;;5045719;28;20877;-69
2020/12/09 06:25:40;;;;;;;54.07;34.83;;;2.50;99.90;;;;;;5046201;28;20225;-68
2020/12/09 06:28:17;;;;;;;56.90;35.17;;;2.50;99.90;;;;;;5039535;28;20187;-68
2020/12/09 06:30:44;;;;;;;53.83;34.53;;;2.50;99.90;;;;;;5039796;28;20244;-69
2020/12/09 06:33:10;;;;;;;48.40;32.37;;;2.50;99.90;;;;;;5040469;28;20189;-69
2020/12/09 06:35:36;;;;;;;51.50;33.80;;;2.50;99.90;;;;;;5044871;28;20198;-68
2020/12/09 06:38:08;;;;;;;55.70;35.40;;;2.50;99.90;;;;;;5038304;28;20203;-69
2020/12/09 06:40:34;;;;;;;50.70;33.83;;;2.50;99.90;;;;;;4990694;28;20224;-69
2020/12/09 06:43:09;;;;;;;52.37;33.60;;;2.60;99.90;;;;;;5026122;28;20239;-68
2020/12/09 06:45:42;;;;;;;48.30;33.20;;;2.60;99.90;;;;;;5046969;28;20201;-68
2020/12/09 06:48:09;;;;;;;50.60;34.80;;;2.60;99.90;;;;;;5045813;28;20182;-69
2020/12/09 06:50:35;;;;;;;48.97;34.47;;;2.60;99.90;;;;;;5048157;28;20257;-69
2020/12/09 06:53:21;;;;;;;52.67;34.07;;;2.60;99.90;;;;;;5045012;28;20211;-69
2020/12/09 06:55:51;;;;;;;47.50;32.07;;;2.60;99.90;;;;;;5042643;28;20570;-69
2020/12/09 06:58:24;;;;;;;53.03;34.93;;;2.60;99.90;;;;;;5043701;28;20770;-69
2020/12/09 07:01:10;;;;;;;49.10;33.00;;;2.70;99.90;;;;;;5039913;28;20594;-68
2020/12/09 07:03:37;;;;;;;55.87;34.87;;;2.60;99.90;;;;;;5041296;28;20547;-69
2020/12/09 07:06:26;;;;;;;45.43;31.50;;;2.60;99.90;;;;;;5043473;28;20303;-68
2020/12/09 07:08:52;;;;;;;54.23;34.00;;;2.50;99.90;;;;;;5026472;28;20243;-69
2020/12/09 07:11:17;;;;;;;47.23;31.97;;;2.50;99.90;;;;;;5041664;28;20705;-69
2020/12/09 07:13:43;;;;;;;50.40;34.00;;;2.50;99.90;;;;;;5040465;28;20238;-70
2020/12/09 07:16:09;;;;;;;55.87;36.07;;;2.50;99.90;;;;;;5044547;28;20199;-70
2020/12/09 07:18:38;;;;;;;55.20;37.03;;;2.40;99.90;;;;;;5046061;28;20249;-69
2020/12/09 07:21:11;;;;;;;56.50;36.63;;;2.30;99.90;;;;;;5050455;28;20575;-70
2020/12/09 07:23:39;;;;;;;56.27;36.53;;;2.30;99.90;;;;;;5044613;28;20546;-69
2020/12/09 07:26:05;;;;;;;52.20;35.57;;;2.30;99.90;;;;;;5037565;28;20221;-69
2020/12/09 07:28:34;;;;;;;56.00;38.00;;;2.30;99.90;;;;;;5045248;28;20313;-69
2020/12/09 07:31:07;;;;;;;49.70;33.40;;;2.30;99.90;;;;;;5028275;28;20191;-70
2020/12/09 07:33:33;;;;;;;52.97;35.43;;;2.40;99.90;;;;;;5046177;28;20183;-70
2020/12/09 07:36:06;;;;;;;54.33;36.53;;;2.40;99.90;;;;;;5045731;28;20694;-69
2020/12/09 07:38:32;;;;;;;59.73;36.77;;;2.40;99.90;;;;;;5045574;28;20207;-69
2020/12/09 07:41:02;;;;;;;55.73;35.43;;;2.40;99.90;;;;;;5023902;28;20278;-69
2020/12/09 07:43:28;;;;;;;52.97;34.73;;;2.50;99.90;;;;;;5041240;28;20195;-69
2020/12/09 07:46:01;;;;;;;54.00;37.77;;;2.50;99.90;;;;;;5038095;28;20219;-69
2020/12/09 07:48:29;;;;;;;61.90;37.87;;;2.50;99.90;;;;;;5045475;28;20211;-69
2020/12/09 07:50:55;;;;;;;56.00;37.03;;;2.40;99.90;;;;;;5045340;28;20186;-70
2020/12/09 07:53:21;;;;;;;57.70;38.97;;;2.40;99.90;;;;;;5047597;28;20185;-70
2020/12/09 07:55:47;;;;;;;56.03;35.10;;;2.40;99.90;;;;;;5045450;28;20901;-69
2020/12/09 07:58:16;;;;;;;52.00;35.50;;;2.40;99.90;;;;;;5043044;28;20197;-69
2020/12/09 08:00:49;;;;;;;52.63;35.13;;;2.40;99.90;;;;;;5045606;28;20203;-69
2020/12/09 08:03:19;;;;;;;53.20;36.93;;;2.40;99.90;;;;;;5047672;28;20188;-69
2020/12/09 08:05:45;;;;;;;51.50;35.13;;;2.50;99.90;;;;;;5040707;28;20247;-69
2020/12/09 08:08:15;;;;;;;58.63;36.60;;;2.50;99.90;;;;;;5041173;28;20600;-69
2020/12/09 08:10:44;;;;;;;54.40;34.47;;;2.40;99.90;;;;;;5045108;28;20207;-70
2020/12/09 08:13:23;;;;;;;58.33;35.87;;;2.50;99.90;;;;;;5037693;28;20723;-70
2020/12/09 08:16:18;;;;;;;54.20;36.87;;;2.50;99.90;;;;;;5046990;28;20181;-69
2020/12/09 08:18:44;;;;;;;51.10;35.20;;;2.60;99.90;;;;;;4966473;28;20805;-69
2020/12/09 08:21:10;;;;;;;50.23;34.67;;;2.60;99.90;;;;;;4965585;28;20408;-70
2020/12/09 08:23:42;;;;;;;47.00;33.73;;;2.60;99.90;;;;;;4972742;28;20203;-70
2020/12/09 08:26:09;;;;;;;50.90;33.37;;;2.60;99.90;;;;;;4969904;28;20220;-69
2020/12/09 08:28:35;;;;;;;51.03;34.60;;;2.60;99.90;;;;;;4968888;28;20201;-69
2020/12/09 08:31:13;;;;;;;53.17;35.73;;;2.50;99.90;;;;;;4967455;28;20260;-65
2020/12/09 08:33:39;;;;;;;55.77;34.27;;;2.50;99.90;;;;;;4965985;28;20214;-67
2020/12/09 08:36:09;;;;;;;52.47;35.53;;;2.50;99.90;;;;;;4963153;28;20266;-67
2020/12/09 08:38:49;;;;;;;58.23;36.60;;;2.50;99.90;;;;;;4961177;28;20285;-67
2020/12/09 08:41:22;;;;;;;56.33;34.97;;;2.40;99.90;;;;;;4961558;28;20208;-67
2020/12/09 08:43:49;;;;;;;58.87;34.73;;;2.40;99.90;;;;;;4963677;28;20215;-67
2020/12/09 08:46:14;;;;;;;59.17;34.90;;;2.40;99.90;;;;;;4960242;28;20258;-68
2020/12/09 08:48:41;;;;;;;59.60;36.20;;;2.40;99.90;;;;;;4962041;28;20218;-67
2020/12/09 08:51:07;;;;;;;60.40;35.87;;;2.40;99.90;;;;;;4967483;28;20306;-66
2020/12/09 08:53:34;;;;;;;55.63;35.33;;;2.40;99.90;;;;;;4952278;28;20314;-66
2020/12/09 08:56:00;;;;;;;63.97;37.60;;;2.50;99.90;;;;;;5029903;28;20675;-66
2020/12/09 08:58:25;;;;;;;62.00;35.17;;;2.50;99.90;;;;;;5038698;28;20208;-67
2020/12/09 09:00:51;;;;;;;60.67;36.93;;;2.50;99.90;;;;;;5040062;28;20193;-67
2020/12/09 09:03:20;;;;;;;55.67;36.03;;;2.50;99.90;;;;;;5039987;28;20198;-66
2020/12/09 09:05:47;;;;;;;56.57;36.73;;;2.60;99.90;;;;;;5045432;28;20190;-66
2020/12/09 09:08:15;;;;;;;54.83;37.30;;;2.70;99.90;;;;;;5037955;28;20190;-66
2020/12/09 09:10:42;;;;;;;55.63;37.30;;;2.80;99.90;;;;;;5038184;28;20214;-67
2020/12/09 09:13:09;;;;;;;54.63;36.07;;;2.90;99.90;;;;;;5047519;28;20180;-66
2020/12/09 09:15:35;;;;;;;51.80;34.83;;;3.00;99.90;;;;;;5031924;28;20507;-66
2020/12/09 09:18:02;;;;;;;47.07;32.83;;;3.00;99.90;;;;;;5040687;28;20213;-66
2020/12/09 09:20:28;;;;;;;46.93;33.53;;;3.10;99.90;;;;;;5040203;28;20216;-66
2020/12/09 09:22:53;;;;;;;49.20;34.47;;;3.20;99.90;;;;;;5042639;28;20187;-66
2020/12/09 09:25:21;;;;;;;53.10;35.07;;;3.20;99.90;;;;;;5043590;28;20257;-66
2020/12/09 09:27:48;;;;;;;65.93;42.50;;;3.30;99.90;;;;;;5045130;28;20205;-67
2020/12/09 09:30:13;;;;;;;57.93;39.27;;;3.40;99.90;;;;;;5038555;28;20207;-65
2020/12/09 09:32:39;;;;;;;50.97;36.20;;;3.50;99.90;;;;;;5043052;28;20182;-68
2020/12/09 09:35:05;;;;;;;50.63;35.80;;;3.50;99.90;;;;;;5043590;28;20641;-67
2020/12/09 09:37:31;;;;;;;48.40;36.43;;;3.60;99.90;;;;;;5050272;28;20190;-67
2020/12/09 09:39:57;;;;;;;44.37;34.60;;;3.60;99.90;;;;;;5047992;28;20246;-65
2020/12/09 09:42:23;;;;;;;49.53;36.07;;;3.60;99.90;;;;;;5048575;28;20199;-66
2020/12/09 09:44:49;;;;;;;45.10;34.80;;;3.60;99.90;;;;;;5045503;28;20224;-66
2020/12/09 09:47:15;;;;;;;43.33;33.73;;;3.60;99.90;;;;;;5035681;28;20764;-66
2020/12/09 09:49:41;;;;;;;44.87;33.60;;;3.60;99.90;;;;;;5043924;28;20203;-66
2020/12/09 09:52:07;;;;;;;42.27;33.43;;;3.60;99.90;;;;;;5043674;28;20186;-66
2020/12/09 09:54:33;;;;;;;48.07;35.17;;;3.50;99.90;;;;;;5040464;28;20176;-67
2020/12/09 09:56:59;;;;;;;48.37;35.53;;;3.60;99.90;;;;;;5036753;28;20206;-66
2020/12/09 09:59:24;;;;;;;47.43;35.10;;;3.60;99.90;;;;;;5038942;28;20402;-67
2020/12/09 10:01:52;;;;;;;44.67;34.73;;;3.60;99.90;;;;;;5039067;28;20187;-67
2020/12/09 10:04:18;;;;;;;45.53;33.60;;;3.60;99.90;;;;;;5037398;28;20183;-66
2020/12/09 10:06:44;;;;;;;47.00;35.70;;;3.60;99.90;;;;;;5040421;28;20207;-67
2020/12/09 10:09:09;;;;;;;45.63;33.70;;;3.50;99.90;;;;;;5043162;28;20273;-67
2020/12/09 10:11:39;;;;;;;44.23;34.17;;;3.50;99.90;;;;;;5048784;28;20183;-66
2020/12/09 10:14:06;;;;;;;48.03;34.20;;;3.50;99.90;;;;;;5038934;28;20185;-67
2020/12/09 10:16:32;;;;;;;51.53;36.83;;;3.60;99.90;;;;;;5045659;28;20189;-66
2020/12/09 10:18:59;;;;;;;46.83;35.27;;;3.60;99.90;;;;;;5035837;28;20670;-66
2020/12/09 10:21:30;;;;;;;50.17;37.67;;;3.50;99.90;;;;;;5038659;28;20179;-66
2020/12/09 10:23:57;;;;;;;43.87;32.63;;;3.50;99.90;;;;;;5045412;28;20195;-67
2020/12/09 10:26:27;;;;;;;51.57;35.07;;;3.60;99.90;;;;;;5048329;28;20239;-67
2020/12/09 10:28:52;;;;;;;46.33;34.67;;;3.70;99.90;;;;;;5036703;28;20208;-67
2020/12/09 10:31:18;;;;;;;47.80;35.53;;;3.70;99.90;;;;;;5043142;28;20179;-67
2020/12/09 10:33:43;;;;;;;48.13;36.33;;;3.70;99.90;;;;;;5039054;28;20175;-67
2020/12/09 10:36:09;;;;;;;52.97;37.77;;;3.70;99.90;;;;;;5043091;28;20724;-66
2020/12/09 10:38:35;;;;;;;53.57;37.87;;;3.80;99.90;;;;;;5033227;28;20558;-66
2020/12/09 10:41:00;;;;;;;47.17;33.40;;;3.70;99.90;;;;;;5040541;28;20262;-67
2020/12/09 10:43:26;;;;;;;44.60;34.33;;;3.70;99.90;;;;;;5041273;28;20198;-66
2020/12/09 10:45:53;;;;;;;46.83;35.60;;;3.70;99.90;;;;;;5039944;28;20271;-67
2020/12/09 10:48:18;;;;;;;47.30;35.23;;;3.70;99.90;;;;;;5036350;28;20270;-67
2020/12/09 10:50:44;;;;;;;44.20;34.30;;;3.70;99.90;;;;;;5039517;28;20228;-66
2020/12/09 10:53:10;;;;;;;49.40;36.10;;;3.60;99.90;;;;;;5043546;28;20180;-66
2020/12/09 10:55:37;;;;;;;48.97;35.50;;;3.70;99.90;;;;;;5036700;28;20203;-66
2020/12/09 10:58:03;;;;;;;49.17;36.17;;;3.70;99.90;;;;;;5048654;28;20226;-67
2020/12/09 11:00:29;;;;;;;50.67;35.87;;;3.70;99.90;;;;;;5036656;28;21047;-66
2020/12/09 11:02:54;;;;;;;46.03;34.57;;;3.70;99.90;;;;;;5042016;28;20348;-67
2020/12/09 11:05:20;;;;;;;46.87;35.57;;;3.80;99.90;;;;;;5043429;28;20212;-66
2020/12/09 11:07:45;;;;;;;47.67;35.43;;;3.80;99.90;;;;;;5036801;28;20222;-66
2020/12/09 11:10:11;;;;;;;44.13;34.33;;;3.80;99.90;;;;;;5038880;28;20202;-66
2020/12/09 11:12:36;;;;;;;47.43;35.37;;;3.80;99.90;;;;;;5050191;28;20192;-66
2020/12/09 11:15:03;;;;;;;46.33;34.97;;;3.80;99.90;;;;;;5040773;28;20223;-66
2020/12/09 11:17:28;;;;;;;46.50;35.73;;;3.80;99.90;;;;;;5040619;28;20771;-66
2020/12/09 11:19:54;;;;;;;45.63;34.30;;;3.80;99.90;;;;;;5046364;28;20214;-66
2020/12/09 11:22:20;;;;;;;48.87;36.07;;;3.80;99.90;;;;;;5043184;28;20191;-65
2020/12/09 11:24:45;;;;;;;48.60;36.10;;;3.80;99.90;;;;;;5046492;28;20592;-66
2020/12/09 11:27:11;;;;;;;47.57;34.40;;;3.80;99.90;;;;;;5038663;28;20345;-64
2020/12/09 11:29:38;;;;;;;50.73;36.87;;;3.70;99.90;;;;;;5036917;28;20291;-66
2020/12/09 11:32:04;;;;;;;49.30;34.40;;;3.70;99.90;;;;;;5018914;28;20676;-65
2020/12/09 11:34:29;;;;;;;46.43;34.37;;;3.70;99.90;;;;;;5043262;28;20186;-66
2020/12/09 11:37:03;;;;;;;47.13;33.53;;;3.70;99.90;;;;;;5044982;28;20635;-64
2020/12/09 11:39:29;;;;;;;50.47;35.57;;;3.70;99.90;;;;;;5036809;28;20272;-65
2020/12/09 11:42:03;;;;;;;49.77;38.27;;;3.70;99.90;;;;;;5039274;28;20207;-66
2020/12/09 11:44:28;;;;;;;48.50;35.63;;;3.70;99.90;;;;;;5040187;28;20214;-66
2020/12/09 11:46:54;;;;;;;46.93;34.50;;;3.70;99.90;;;;;;5038961;28;20209;-66
2020/12/09 11:49:20;;;;;;;47.57;36.07;;;3.70;99.90;;;;;;5041543;28;20687;-65
2020/12/09 11:51:49;;;;;;;49.53;36.27;;;3.60;99.90;;;;;;5041777;28;20224;-67
2020/12/09 11:54:15;;;;;;;51.77;36.60;;;3.60;99.90;;;;;;5039316;28;20194;-66
2020/12/09 11:56:40;;;;;;;48.47;36.40;;;3.60;99.90;;;;;;5046534;28;20687;-66
2020/12/09 11:59:06;;;;;;;48.83;36.43;;;3.70;99.90;;;;;;5032910;28;20762;-66
2020/12/09 12:01:31;;;;;;;46.90;34.93;;;3.60;99.90;;;;;;5041370;28;20267;-65
2020/12/09 12:03:57;;;;;;;46.03;35.17;;;3.70;99.90;;;;;;5045458;28;20226;-66
2020/12/09 12:06:26;;;;;;;45.93;33.13;;;3.60;99.90;;;;;;5042043;28;20589;-66
2020/12/09 12:08:53;;;;;;;50.17;36.30;;;3.70;99.90;;;;;;5031436;28;20689;-66
2020/12/09 12:11:20;;;;;;;47.67;35.90;;;3.70;99.90;;;;;;5034092;28;20177;-65
2020/12/09 12:13:46;;;;;;;45.53;33.13;;;3.70;99.90;;;;;;5049339;28;20251;-66
2020/12/09 12:16:17;;;;;;;43.60;32.70;;;3.70;99.90;;;;;;5037134;28;20672;-65
2020/12/09 12:18:44;;;;;;;42.27;33.20;;;3.70;99.90;;;;;;5020276;28;20196;-66
2020/12/09 12:21:13;;;;;;;46.93;33.00;;;3.80;99.90;;;;;;5034133;28;20196;-65
2020/12/09 12:23:39;;;;;;;44.00;33.43;;;3.80;99.90;;;;;;5045407;28;20195;-66
2020/12/09 12:26:05;;;;;;;46.20;32.17;;;3.80;99.90;;;;;;5037828;28;20196;-65
2020/12/09 12:28:31;;;;;;;44.93;34.03;;;3.80;99.90;;;;;;5034755;28;20770;-65
2020/12/09 12:30:56;;;;;;;47.57;36.00;;;3.80;99.90;;;;;;5033889;28;20179;-65
2020/12/09 12:33:22;;;;;;;45.30;33.60;;;3.80;99.90;;;;;;5043032;28;20191;-66
2020/12/09 12:35:48;;;;;;;48.37;35.73;;;3.80;99.90;;;;;;5039049;28;20675;-65
2020/12/09 12:38:13;;;;;;;47.57;35.23;;;3.90;99.90;;;;;;5035126;28;20648;-66
2020/12/09 12:40:39;;;;;;;45.80;34.87;;;3.80;99.90;;;;;;5036168;28;20295;-66
2020/12/09 12:43:04;;;;;;;48.60;34.20;;;3.80;99.90;;;;;;5036108;28;20734;-64